Time;durP1;ratioP1;P1;durP2;ratioP2;P2;SDS_P1;SDS_P2;PMS_P1;PMS_P2;Temp;Humidity;BMP_temperature;BMP_pressure;BME280_temperature;BME280_humidity;BME280_pressure;Samples;Min_cycle;Max_cycle;Signal;HPM_P1;HPM_P2
2021/10/28 00:13:26;;;;;;;7.53;4.40;;;8.70;99.90;;;;;;5014563;28;20486;-78
2021/10/28 00:15:58;;;;;;;8.88;4.78;;;8.80;99.90;;;;;;5012428;28;20121;-79
2021/10/28 00:19:26;;;;;;;7.20;4.38;;;8.70;99.90;;;;;;5014353;28;20026;-78
2021/10/28 00:21:19;;;;;;;9.43;4.47;;;8.70;99.90;;;;;;5013718;28;20029;-79
2021/10/28 00:23:48;;;;;;;8.85;4.25;;;8.80;99.90;;;;;;5046146;28;20463;-78
2021/10/28 00:26:14;;;;;;;6.63;4.88;;;8.80;99.90;;;;;;5014432;28;20040;-78
2021/10/28 00:28:40;;;;;;;7.50;4.22;;;8.70;99.50;;;;;;5013996;28;20034;-78
2021/10/28 00:31:07;;;;;;;8.25;4.72;;;8.60;99.50;;;;;;5013307;28;20117;-78
2021/10/28 00:33:34;;;;;;;6.70;4.25;;;8.50;99.60;;;;;;5013436;28;20030;-78
2021/10/28 00:36:01;;;;;;;6.85;4.35;;;8.50;99.80;;;;;;5012917;28;20026;-78
2021/10/28 00:38:27;;;;;;;7.45;4.28;;;8.40;99.80;;;;;;5013628;28;20055;-79
2021/10/28 00:40:53;;;;;;;7.28;4.53;;;8.40;99.70;;;;;;5013892;28;20022;-79
2021/10/28 00:43:19;;;;;;;9.52;4.32;;;8.40;99.90;;;;;;5046428;28;20026;-78
2021/10/28 00:45:49;;;;;;;7.45;4.03;;;8.40;99.50;;;;;;5013820;28;20040;-78
2021/10/28 00:48:15;;;;;;;7.72;4.35;;;8.30;99.50;;;;;;5046151;28;20026;-78
2021/10/28 00:50:41;;;;;;;9.52;4.18;;;8.30;99.50;;;;;;5012787;28;20022;-78
2021/10/28 00:53:07;;;;;;;6.57;4.10;;;8.30;99.50;;;;;;5014427;28;20026;-78
2021/10/28 00:55:34;;;;;;;9.15;4.22;;;8.30;99.40;;;;;;5012774;28;20039;-78
2021/10/28 00:57:59;;;;;;;7.35;4.22;;;8.20;99.40;;;;;;5013569;28;20048;-78
2021/10/28 01:00:25;;;;;;;7.40;4.20;;;8.10;99.50;;;;;;5013380;28;20026;-78
2021/10/28 01:02:51;;;;;;;7.80;3.90;;;8.10;99.70;;;;;;5012468;28;20374;-78
2021/10/28 01:05:17;;;;;;;7.18;3.95;;;8.10;99.60;;;;;;5046195;28;20053;-78
2021/10/28 01:07:43;;;;;;;8.55;3.95;;;8.00;99.60;;;;;;5012708;28;20483;-78
2021/10/28 01:10:09;;;;;;;5.28;3.60;;;8.00;99.70;;;;;;5013319;28;20028;-78
2021/10/28 01:12:35;;;;;;;7.22;4.22;;;8.00;99.40;;;;;;5020782;28;20029;-78
2021/10/28 01:15:00;;;;;;;8.15;4.40;;;8.00;99.40;;;;;;5020040;28;20104;-78
2021/10/28 01:17:29;;;;;;;8.35;4.70;;;7.90;99.50;;;;;;5019417;28;20466;-78
2021/10/28 01:19:55;;;;;;;8.85;4.60;;;7.80;99.60;;;;;;5018647;28;20075;-78
2021/10/28 01:22:21;;;;;;;7.45;3.72;;;7.80;99.50;;;;;;5020243;28;20030;-78
2021/10/28 01:24:46;;;;;;;7.30;4.00;;;7.80;99.60;;;;;;5019949;28;20021;-78
2021/10/28 01:27:12;;;;;;;7.53;4.18;;;7.80;99.70;;;;;;5052609;28;20073;-77
2021/10/28 01:29:38;;;;;;;8.07;4.10;;;7.70;99.80;;;;;;5019712;28;20028;-78
2021/10/28 01:32:05;;;;;;;5.75;3.78;;;7.60;99.90;;;;;;5019384;28;20032;-78
2021/10/28 01:34:31;;;;;;;9.18;4.07;;;7.70;99.90;;;;;;5019159;28;20374;-78
2021/10/28 01:36:59;;;;;;;6.40;4.32;;;7.70;99.90;;;;;;5018663;28;20224;-78
2021/10/28 01:39:25;;;;;;;8.93;4.60;;;7.70;99.70;;;;;;5018792;28;20026;-78
2021/10/28 01:41:53;;;;;;;8.32;4.03;;;7.60;99.70;;;;;;5019928;28;20473;-78
2021/10/28 01:44:19;;;;;;;5.05;3.38;;;7.60;99.70;;;;;;5020215;28;20120;-77
2021/10/28 01:46:45;;;;;;;6.63;3.75;;;7.60;99.80;;;;;;5018401;28;20374;-79
2021/10/28 01:49:22;;;;;;;10.18;4.32;;;7.50;99.90;;;;;;5035760;28;20026;-79
2021/10/28 01:51:48;;;;;;;7.63;3.78;;;7.60;99.60;;;;;;5035672;28;20025;-79
2021/10/28 01:54:14;;;;;;;7.45;3.95;;;7.60;99.30;;;;;;5035352;28;20022;-78
2021/10/28 01:56:40;;;;;;;7.35;3.92;;;7.60;99.20;;;;;;5034918;28;20028;-78
2021/10/28 01:59:05;;;;;;;7.28;3.67;;;7.60;99.10;;;;;;5035319;28;20069;-79
2021/10/28 02:01:31;;;;;;;7.55;3.50;;;7.60;99.20;;;;;;5019748;28;20021;-78
2021/10/28 02:03:56;;;;;;;7.43;3.90;;;7.50;99.30;;;;;;5034855;28;20447;-78
2021/10/28 02:06:22;;;;;;;6.15;3.80;;;7.50;99.30;;;;;;5035581;28;20034;-79
2021/10/28 02:08:48;;;;;;;5.25;3.65;;;7.60;99.10;;;;;;5019506;28;20451;-79
2021/10/28 02:11:13;;;;;;;6.95;3.80;;;7.50;98.80;;;;;;5035301;28;20022;-79
2021/10/28 02:13:39;;;;;;;6.82;3.35;;;7.40;99.00;;;;;;5020028;28;20026;-78
2021/10/28 02:16:05;;;;;;;6.57;3.70;;;7.40;99.00;;;;;;5034776;28;20026;-78
2021/10/28 02:18:31;;;;;;;8.32;3.75;;;7.30;98.70;;;;;;5035070;28;20105;-78
2021/10/28 02:20:57;;;;;;;5.22;3.17;;;7.30;98.70;;;;;;5018923;28;20100;-78
2021/10/28 02:23:22;;;;;;;5.80;3.42;;;7.30;98.60;;;;;;5031746;28;20018;-78
2021/10/28 02:25:48;;;;;;;7.30;3.55;;;7.30;98.50;;;;;;5016236;28;20083;-78
2021/10/28 02:28:13;;;;;;;7.57;3.25;;;7.30;98.50;;;;;;5032051;28;20030;-78
2021/10/28 02:30:39;;;;;;;6.97;3.83;;;7.20;98.30;;;;;;5016911;28;20045;-79
2021/10/28 02:33:06;;;;;;;7.88;3.35;;;7.10;98.40;;;;;;5031432;28;20108;-78
2021/10/28 02:35:31;;;;;;;6.50;3.30;;;7.00;98.50;;;;;;5016858;28;20390;-78
2021/10/28 02:37:57;;;;;;;4.53;2.83;;;7.00;98.60;;;;;;5031774;28;20040;-78
2021/10/28 02:40:24;;;;;;;7.80;3.80;;;7.00;98.50;;;;;;5032036;28;20044;-79
2021/10/28 02:42:50;;;;;;;6.83;3.27;;;7.00;98.50;;;;;;5031521;28;20026;-79
2021/10/28 02:45:16;;;;;;;6.47;3.88;;;6.90;98.60;;;;;;5031809;28;20124;-79
2021/10/28 02:47:42;;;;;;;5.65;3.50;;;6.90;98.70;;;;;;5031683;28;20056;-79
2021/10/28 02:50:08;;;;;;;5.85;3.63;;;6.80;98.80;;;;;;5032107;28;20367;-79
2021/10/28 02:52:34;;;;;;;5.53;3.20;;;6.80;99.00;;;;;;5032037;28;20068;-78
2021/10/28 02:55:00;;;;;;;4.13;3.00;;;6.80;99.00;;;;;;5015981;28;20018;-78
2021/10/28 02:57:25;;;;;;;5.18;3.15;;;6.70;99.00;;;;;;5016389;28;20053;-78
2021/10/28 02:59:51;;;;;;;5.63;3.35;;;6.80;98.90;;;;;;5031558;28;20113;-79
2021/10/28 03:02:17;;;;;;;5.43;3.30;;;6.80;98.70;;;;;;5031969;28;20093;-78
2021/10/28 03:04:43;;;;;;;8.00;3.75;;;6.80;98.70;;;;;;5031837;28;20030;-78
2021/10/28 03:07:08;;;;;;;6.30;3.35;;;6.70;98.70;;;;;;5031651;28;20036;-78
2021/10/28 03:09:34;;;;;;;5.00;3.30;;;6.70;98.70;;;;;;5031488;28;20403;-78
2021/10/28 03:12:02;;;;;;;8.53;2.87;;;6.60;98.80;;;;;;5015553;28;20068;-79
2021/10/28 03:15:03;;;;;;;4.75;3.00;;;6.70;98.80;;;;;;5031732;28;20087;-79
2021/10/28 03:19:59;;;;;;;5.40;3.03;;;6.50;98.90;;;;;;5015542;28;20034;-78
2021/10/28 03:25:35;;;;;;;5.77;3.50;;;6.50;99.00;;;;;;5015776;28;20037;-79
2021/10/28 03:27:57;;;;;;;4.83;2.97;;;6.50;99.10;;;;;;5014981;28;20084;-79
2021/10/28 03:30:24;;;;;;;5.17;3.17;;;6.60;99.10;;;;;;5030997;28;20045;-79
2021/10/28 03:32:50;;;;;;;4.57;3.10;;;6.50;99.10;;;;;;5030691;28;20121;-79
2021/10/28 03:35:16;;;;;;;5.50;3.00;;;6.60;99.20;;;;;;5031168;28;20109;-79
2021/10/28 03:37:53;;;;;;;4.97;3.10;;;6.50;99.20;;;;;;5031326;28;20457;-79
2021/10/28 04:31:06;;;;;;;3.73;2.87;;;6.00;98.90;;;;;;5013889;28;20513;-79
2021/10/28 04:33:39;;;;;;;6.27;2.97;;;6.10;99.20;;;;;;5014592;28;20026;-79
2021/10/28 04:36:05;;;;;;;4.97;3.07;;;6.20;99.10;;;;;;5029252;28;20022;-78
2021/10/28 04:38:30;;;;;;;6.83;3.13;;;6.10;99.20;;;;;;5029300;28;20032;-78
2021/10/28 04:40:56;;;;;;;7.73;3.60;;;6.20;99.30;;;;;;5029492;28;20080;-78
2021/10/28 04:43:21;;;;;;;7.57;3.47;;;6.30;99.50;;;;;;5023942;28;20753;-78
2021/10/28 04:45:47;;;;;;;4.97;3.00;;;6.30;99.50;;;;;;5011538;28;20026;-78
2021/10/28 04:48:13;;;;;;;6.33;3.57;;;6.40;99.60;;;;;;5011310;28;20463;-77
2021/10/28 04:50:38;;;;;;;7.47;4.20;;;6.50;99.70;;;;;;5010496;28;20054;-78
2021/10/28 04:53:04;;;;;;;7.77;4.27;;;6.50;99.90;;;;;;5025517;28;20029;-78
2021/10/28 04:55:29;;;;;;;12.07;4.30;;;6.50;99.90;;;;;;5009776;28;20022;-77
2021/10/28 04:57:55;;;;;;;10.67;4.50;;;6.40;99.90;;;;;;5010372;28;20078;-78
2021/10/28 05:00:21;;;;;;;10.40;5.07;;;6.50;99.90;;;;;;5009751;28;20030;-78
2021/10/28 05:02:46;;;;;;;10.57;4.73;;;6.50;99.90;;;;;;5011241;28;20053;-78
2021/10/28 05:05:12;;;;;;;6.73;4.00;;;6.60;99.90;;;;;;5009572;28;20064;-77
2021/10/28 05:07:37;;;;;;;7.70;4.23;;;6.60;99.90;;;;;;5009818;28;20493;-79
2021/10/28 05:10:04;;;;;;;7.53;4.20;;;6.60;99.90;;;;;;5010733;28;20053;-79
2021/10/28 05:12:30;;;;;;;7.37;4.57;;;6.60;99.90;;;;;;5009762;28;20047;-79
2021/10/28 05:14:55;;;;;;;8.83;4.20;;;6.70;99.90;;;;;;5010626;28;20066;-79
2021/10/28 05:17:21;;;;;;;10.53;4.60;;;6.70;99.90;;;;;;5009496;28;20030;-79
2021/10/28 05:19:47;;;;;;;10.37;4.90;;;6.70;99.90;;;;;;5011241;28;20026;-77
2021/10/28 05:22:12;;;;;;;11.20;5.37;;;6.70;99.90;;;;;;5010562;28;20021;-78
2021/10/28 05:24:38;;;;;;;9.53;5.03;;;6.70;99.90;;;;;;5009346;28;20037;-77
2021/10/28 05:27:04;;;;;;;10.10;5.53;;;6.70;99.90;;;;;;5010150;28;20042;-77
2021/10/28 05:29:30;;;;;;;12.07;5.47;;;6.70;99.90;;;;;;5009514;28;20025;-77
2021/10/28 05:31:55;;;;;;;11.33;5.53;;;6.70;99.90;;;;;;5009119;28;20045;-78
2021/10/28 05:34:22;;;;;;;12.27;5.47;;;6.70;99.90;;;;;;5009480;28;20018;-77
2021/10/28 05:36:47;;;;;;;10.43;5.53;;;6.70;99.90;;;;;;5010001;28;20037;-79
2021/10/28 05:39:13;;;;;;;8.60;4.83;;;6.80;99.90;;;;;;5010443;28;20030;-78
2021/10/28 05:41:39;;;;;;;11.60;5.70;;;6.80;99.90;;;;;;5009310;28;20450;-78
2021/10/28 05:44:04;;;;;;;11.87;5.30;;;6.80;99.90;;;;;;5008830;28;20463;-78
2021/10/28 05:46:30;;;;;;;10.70;4.87;;;6.80;99.90;;;;;;5009461;28;20034;-78
2021/10/28 05:48:56;;;;;;;16.57;5.57;;;6.90;99.90;;;;;;5010562;28;20029;-78
2021/10/28 05:51:22;;;;;;;11.90;5.07;;;6.90;99.90;;;;;;5009173;28;20026;-78
2021/10/28 05:53:49;;;;;;;14.23;4.60;;;6.80;99.90;;;;;;5009776;28;20038;-79
2021/10/28 05:56:15;;;;;;;9.77;4.77;;;6.90;99.90;;;;;;5010475;28;20034;-79
2021/10/28 05:58:40;;;;;;;12.82;4.97;;;6.90;99.90;;;;;;5011641;28;20464;-77
2021/10/28 06:01:06;;;;;;;11.00;4.53;;;6.90;99.90;;;;;;5012718;28;20030;-78
2021/10/28 06:03:32;;;;;;;14.73;4.67;;;7.00;99.90;;;;;;5014542;28;20098;-78
2021/10/28 06:05:58;;;;;;;16.42;5.50;;;7.10;99.90;;;;;;5012082;28;20026;-78
2021/10/28 06:08:24;;;;;;;10.23;4.17;;;7.10;99.90;;;;;;5012917;28;20425;-78
2021/10/28 06:10:50;;;;;;;9.38;3.88;;;7.10;99.90;;;;;;5013791;28;20034;-78
2021/10/28 06:13:16;;;;;;;10.17;3.70;;;7.20;99.90;;;;;;5012423;28;20494;-79
2021/10/28 06:15:41;;;;;;;7.50;4.07;;;7.30;99.90;;;;;;5012991;28;20108;-78
2021/10/28 06:20:43;;;;;;;8.33;4.00;;;7.40;99.90;;;;;;5013842;28;20030;-78
2021/10/28 06:23:09;;;;;;;7.75;3.35;;;7.40;99.90;;;;;;5012504;28;20022;-78
2021/10/28 06:25:35;;;;;;;9.45;4.53;;;7.40;99.90;;;;;;5012369;28;20100;-79
2021/10/28 06:28:01;;;;;;;10.63;4.13;;;7.40;99.90;;;;;;5013041;28;20463;-79
2021/10/28 06:30:27;;;;;;;7.88;4.18;;;7.50;99.90;;;;;;5012934;28;20041;-79
2021/10/28 06:32:56;;;;;;;9.48;4.63;;;7.40;99.90;;;;;;5012665;28;20026;-79
2021/10/28 06:35:22;;;;;;;9.90;4.00;;;7.40;99.90;;;;;;5012342;28;20026;-76
2021/10/28 06:37:50;;;;;;;10.40;4.47;;;7.40;99.90;;;;;;5011682;28;20030;-76
2021/10/28 06:40:19;;;;;;;8.73;3.75;;;7.50;99.90;;;;;;5011784;28;20026;-75
2021/10/28 06:42:45;;;;;;;7.63;3.40;;;7.60;99.90;;;;;;5011954;28;20037;-75
2021/10/28 06:45:12;;;;;;;13.93;4.72;;;7.60;99.90;;;;;;5011203;28;20030;-75
2021/10/28 06:47:38;;;;;;;12.32;3.97;;;7.60;99.90;;;;;;5011515;28;20467;-75
2021/10/28 06:50:12;;;;;;;12.65;3.78;;;7.60;99.90;;;;;;5011261;28;20056;-74
2021/10/28 06:52:54;;;;;;;9.45;4.03;;;7.70;99.90;;;;;;5012602;28;20022;-74
2021/10/28 06:55:47;;;;;;;15.73;4.63;;;7.70;99.90;;;;;;5013201;28;20108;-75
2021/10/28 07:03:23;;;;;;;17.95;5.50;;;7.70;99.90;;;;;;5011430;28;20036;-76
2021/10/28 07:05:49;;;;;;;25.73;6.32;;;7.70;99.90;;;;;;5010837;28;20033;-75
2021/10/28 07:08:15;;;;;;;22.40;6.47;;;7.80;99.90;;;;;;5012264;28;20038;-74
2021/10/28 07:10:42;;;;;;;19.67;6.07;;;7.80;99.90;;;;;;5012875;28;20034;-76
2021/10/28 07:13:17;;;;;;;18.48;6.38;;;7.80;99.90;;;;;;5012333;28;20025;-76
2021/10/28 07:15:49;;;;;;;26.25;6.70;;;7.90;99.90;;;;;;5012799;28;20030;-76
2021/10/28 07:26:45;;;;;;;21.05;6.82;;;8.00;99.90;;;;;;5012164;28;20033;-76
2021/10/28 08:29:23;;;;;;;17.42;8.82;;;8.40;99.90;;;;;;5012989;28;20048;-78
2021/10/28 08:31:51;;;;;;;19.08;9.27;;;8.40;99.90;;;;;;5025859;28;20032;-77
2021/10/28 08:34:21;;;;;;;18.45;8.95;;;8.50;99.90;;;;;;5012648;28;20411;-78
2021/10/28 08:36:51;;;;;;;17.05;9.13;;;8.60;99.90;;;;;;5013935;28;20026;-78
2021/10/28 08:39:17;;;;;;;19.30;8.25;;;8.60;99.90;;;;;;5028791;28;20068;-78
2021/10/28 08:41:44;;;;;;;20.52;9.15;;;8.60;99.90;;;;;;5028757;28;20018;-78
2021/10/28 08:44:13;;;;;;;15.90;8.43;;;8.60;99.90;;;;;;5013512;28;20096;-78
2021/10/28 08:46:42;;;;;;;16.35;7.90;;;8.70;99.90;;;;;;5011929;28;20042;-78
2021/10/28 08:49:16;;;;;;;14.60;7.65;;;8.70;99.90;;;;;;5010904;28;20026;-76
2021/10/28 08:51:57;;;;;;;19.67;8.35;;;8.80;99.90;;;;;;5028141;28;20057;-78
2021/10/28 08:57:20;;;;;;;18.73;8.40;;;8.90;99.90;;;;;;5011080;28;20095;-78
2021/10/28 09:24:49;;;;;;;16.33;8.43;;;9.10;99.90;;;;;;5012540;28;20105;-74
2021/10/28 09:27:32;;;;;;;20.52;9.30;;;9.20;99.90;;;;;;5009165;28;20057;-77
2021/10/28 09:35:30;;;;;;;21.25;9.13;;;9.20;99.90;;;;;;5015403;28;20028;-75
2021/10/28 09:46:50;;;;;;;21.23;8.65;;;9.20;99.90;;;;;;5001693;28;20061;-75
2021/10/28 09:51:57;;;;;;;24.48;9.38;;;9.30;99.90;;;;;;5015900;28;20061;-73
2021/10/28 10:00:09;;;;;;;24.45;9.98;;;9.40;99.90;;;;;;5014039;28;20024;-74
2021/10/28 10:05:06;;;;;;;19.80;9.55;;;9.40;99.90;;;;;;5014540;28;20029;-74
2021/10/28 10:07:32;;;;;;;20.73;9.77;;;9.40;99.90;;;;;;5030901;28;20030;-73
2021/10/28 10:10:02;;;;;;;21.33;10.07;;;9.50;99.90;;;;;;5012437;28;20613;-75
2021/10/28 10:12:28;;;;;;;25.65;10.10;;;9.60;99.90;;;;;;5015768;28;20036;-74
2021/10/28 10:14:54;;;;;;;25.33;10.27;;;9.70;99.90;;;;;;5013862;28;20387;-74
2021/10/28 10:17:20;;;;;;;26.17;10.80;;;9.70;99.90;;;;;;5013216;28;20037;-74
2021/10/28 10:19:50;;;;;;;21.48;11.13;;;9.70;99.90;;;;;;5014850;28;20036;-75
2021/10/28 10:22:40;;;;;;;21.02;10.90;;;9.70;99.90;;;;;;5011500;28;20040;-74
2021/10/28 10:26:03;;;;;;;17.60;10.02;;;9.70;99.90;;;;;;5013120;28;20146;-75
2021/10/28 11:28:30;;;;;;;25.02;12.48;;;10.80;98.90;;;;;;5014190;28;20184;-76
2021/10/28 12:17:21;;;;;;;24.15;12.75;;;12.30;96.30;;;;;;5012021;28;20042;-73
2021/10/28 12:23:06;;;;;;;22.98;12.65;;;12.60;95.70;;;;;;5012314;28;20030;-73
2021/10/28 12:25:39;;;;;;;23.40;12.43;;;12.90;95.20;;;;;;5012172;28;20109;-73
2021/10/28 12:56:42;;;;;;;20.35;10.85;;;17.20;84.30;;;;;;5027293;28;20071;-75
2021/10/28 13:35:14;;;;;;;18.77;10.07;;;18.10;74.90;;;;;;5004814;28;20037;-74
2021/10/28 13:51:00;;;;;;;20.52;9.98;;;16.30;85.30;;;;;;5008111;28;20355;-74
2021/10/28 13:53:45;;;;;;;17.27;10.00;;;16.20;85.60;;;;;;5008383;28;20052;-75
2021/10/28 13:56:30;;;;;;;18.33;10.70;;;16.10;86.00;;;;;;5007289;28;20018;-75
2021/10/28 14:20:42;;;;;;;;;;;14.50;92.20;;;;;;5009782;28;20018;-75
2021/10/28 14:26:09;;;;;;;20.60;10.30;;;14.30;92.70;;;;;;5008919;28;20088;-74
2021/10/28 15:27:49;;;;;;;22.13;11.27;;;12.90;96.50;;;;;;5010418;28;20069;-83
2021/10/28 15:30:24;;;;;;;20.77;11.20;;;12.90;96.80;;;;;;5009222;28;20143;-82
2021/10/28 15:35:45;;;;;;;17.30;10.63;;;12.80;97.00;;;;;;5009800;28;20018;-83
2021/10/28 15:50:06;;;;;;;21.27;12.10;;;12.60;97.50;;;;;;5012740;28;20088;-83
2021/10/28 15:59:59;;;;;;;25.48;12.57;;;12.30;98.00;;;;;;5010161;28;20073;-74
2021/10/28 16:21:59;;;;;;;27.35;13.02;;;11.80;98.90;;;;;;5009825;28;20040;-75
2021/10/28 16:24:33;;;;;;;22.58;12.07;;;11.70;99.00;;;;;;5010247;28;20111;-75
2021/10/28 16:26:59;;;;;;;27.40;13.57;;;11.70;99.10;;;;;;5026558;28;20133;-75
2021/10/28 16:29:26;;;;;;;24.52;12.88;;;11.60;99.10;;;;;;5026153;28;20041;-79
2021/10/28 16:31:52;;;;;;;27.90;13.30;;;11.60;99.20;;;;;;5010518;28;20030;-81
2021/10/28 16:34:18;;;;;;;28.13;14.43;;;11.60;99.10;;;;;;5026028;28;20117;-74
2021/10/28 16:36:46;;;;;;;26.20;13.80;;;11.50;99.20;;;;;;5026414;28;20457;-74
2021/10/28 16:39:14;;;;;;;26.42;13.60;;;11.40;99.30;;;;;;5008868;28;20529;-73
2021/10/28 16:41:43;;;;;;;29.40;15.10;;;11.30;99.50;;;;;;5011797;28;20025;-73
2021/10/28 16:44:10;;;;;;;27.83;14.45;;;11.30;99.50;;;;;;5010276;28;20022;-78
2021/10/28 16:46:37;;;;;;;29.05;14.13;;;11.20;99.50;;;;;;5011329;28;20026;-76
2021/10/28 16:49:03;;;;;;;30.42;15.77;;;11.20;99.60;;;;;;5010098;28;20045;-76
2021/10/28 16:51:29;;;;;;;30.10;15.85;;;11.10;99.80;;;;;;5025765;28;20083;-76
2021/10/28 16:53:55;;;;;;;34.35;16.35;;;11.10;99.80;;;;;;5025936;28;20018;-76
2021/10/28 16:56:21;;;;;;;35.45;18.25;;;11.10;99.90;;;;;;5010762;28;20030;-75
2021/10/28 16:58:47;;;;;;;38.20;19.50;;;11.10;99.90;;;;;;5009548;28;20555;-74
2021/10/28 17:01:13;;;;;;;40.78;20.60;;;11.00;99.90;;;;;;5009468;28;20053;-79
2021/10/28 17:03:39;;;;;;;32.17;16.52;;;11.00;99.90;;;;;;5010644;28;20061;-77
2021/10/28 17:06:05;;;;;;;34.08;18.70;;;11.00;99.90;;;;;;5010806;28;20125;-77
2021/10/28 17:08:40;;;;;;;36.42;19.50;;;11.00;99.90;;;;;;5026219;28;20034;-75
2021/10/28 17:11:06;;;;;;;32.95;16.98;;;10.90;99.90;;;;;;5024870;28;20109;-80
2021/10/28 17:13:33;;;;;;;41.50;19.02;;;10.90;99.90;;;;;;5007592;28;20072;-76
2021/10/28 17:15:58;;;;;;;36.55;18.52;;;10.90;99.90;;;;;;5007123;28;20120;-76
2021/10/28 17:18:24;;;;;;;31.35;16.58;;;10.70;99.90;;;;;;5007254;28;20145;-73
2021/10/28 17:20:51;;;;;;;30.55;15.80;;;10.70;99.90;;;;;;5008522;28;20029;-74
2021/10/28 17:23:19;;;;;;;28.75;14.73;;;10.70;99.90;;;;;;5007097;28;20084;-73
2021/10/28 17:25:55;;;;;;;28.35;15.80;;;10.70;99.90;;;;;;4992398;28;20048;-73
2021/10/28 17:28:21;;;;;;;36.20;17.73;;;10.60;99.90;;;;;;5006617;28;20057;-76
2021/10/28 17:30:47;;;;;;;38.53;19.17;;;10.50;99.90;;;;;;5007694;28;20475;-76
2021/10/28 17:33:12;;;;;;;40.38;20.42;;;10.40;99.90;;;;;;5006799;28;20029;-76
2021/10/28 17:35:38;;;;;;;37.30;19.63;;;10.40;99.90;;;;;;5007306;28;20130;-78
2021/10/28 17:38:04;;;;;;;37.72;21.00;;;10.40;99.90;;;;;;5008868;28;20033;-75
2021/10/28 17:40:29;;;;;;;35.67;19.60;;;10.40;99.90;;;;;;5010172;28;20105;-75
2021/10/28 17:42:56;;;;;;;33.47;18.75;;;10.40;99.90;;;;;;5007119;28;20022;-74
2021/10/28 17:45:26;;;;;;;35.95;19.40;;;10.30;99.90;;;;;;5006754;28;20022;-74
2021/10/28 17:47:53;;;;;;;40.20;20.02;;;10.30;99.90;;;;;;5006033;28;20084;-74
2021/10/28 17:50:22;;;;;;;34.67;18.27;;;10.20;99.90;;;;;;5006362;28;20464;-74
2021/10/28 17:52:48;;;;;;;28.98;17.08;;;10.20;99.90;;;;;;5008844;28;20345;-73
2021/10/28 17:55:14;;;;;;;35.85;18.25;;;10.20;99.90;;;;;;5011434;28;20030;-73
2021/10/28 17:57:41;;;;;;;34.75;18.17;;;10.10;99.90;;;;;;5010651;28;20495;-73
2021/10/28 18:00:09;;;;;;;28.75;16.70;;;10.20;99.90;;;;;;5009506;28;20121;-76
2021/10/28 18:02:35;;;;;;;28.88;14.98;;;10.10;99.90;;;;;;5011193;28;20026;-74
2021/10/28 18:05:02;;;;;;;29.98;15.57;;;10.00;99.90;;;;;;5014471;28;20041;-75
2021/10/28 18:07:27;;;;;;;28.90;15.13;;;9.90;99.90;;;;;;5012203;28;20121;-74
2021/10/28 18:09:53;;;;;;;29.38;15.57;;;9.90;99.90;;;;;;5012392;28;20518;-73
2021/10/28 18:12:19;;;;;;;29.85;17.10;;;9.90;99.90;;;;;;5013102;28;20080;-73
2021/10/28 18:14:45;;;;;;;32.22;16.33;;;9.90;99.90;;;;;;5012707;28;20029;-74
2021/10/28 18:17:11;;;;;;;32.30;16.45;;;9.80;99.90;;;;;;5011155;28;20033;-75
2021/10/28 18:19:39;;;;;;;31.80;16.67;;;9.80;99.90;;;;;;5028420;28;20034;-73
2021/10/28 18:22:05;;;;;;;30.85;16.90;;;9.80;99.90;;;;;;5012314;28;20026;-73
2021/10/28 18:24:31;;;;;;;32.30;16.02;;;9.80;99.90;;;;;;5011813;28;20057;-73
2021/10/28 18:26:57;;;;;;;31.63;16.05;;;9.80;99.90;;;;;;5028698;28;20037;-74
2021/10/28 18:29:23;;;;;;;31.35;15.57;;;9.70;99.90;;;;;;5010495;28;20026;-73
2021/10/28 18:31:50;;;;;;;29.67;16.00;;;9.70;99.90;;;;;;5027461;28;20030;-74
2021/10/28 18:34:16;;;;;;;27.70;14.85;;;9.60;99.90;;;;;;5011498;28;20025;-74
2021/10/28 18:36:45;;;;;;;21.70;12.30;;;9.50;99.90;;;;;;5011898;28;20022;-73
2021/10/28 18:39:14;;;;;;;23.35;12.07;;;9.40;99.90;;;;;;5011199;28;20030;-77
2021/10/28 18:41:42;;;;;;;24.70;11.80;;;9.40;99.90;;;;;;5010294;28;20025;-74
2021/10/28 18:44:08;;;;;;;22.50;12.23;;;9.40;99.90;;;;;;5011133;28;20072;-75
2021/10/28 18:46:34;;;;;;;25.08;12.75;;;9.40;99.90;;;;;;5012299;28;20026;-74
2021/10/28 18:49:06;;;;;;;22.90;11.70;;;9.30;99.90;;;;;;5010333;28;20034;-74
2021/10/28 18:51:33;;;;;;;21.75;11.20;;;9.30;99.90;;;;;;5011085;28;20026;-74
2021/10/28 18:53:59;;;;;;;23.33;12.07;;;9.30;99.90;;;;;;5007929;28;20096;-74
2021/10/28 18:56:25;;;;;;;21.95;11.40;;;9.30;99.70;;;;;;5008958;28;20121;-74
2021/10/28 18:58:51;;;;;;;20.50;11.68;;;9.20;99.70;;;;;;5008935;28;20112;-74
2021/10/28 19:01:18;;;;;;;20.70;11.02;;;9.10;99.60;;;;;;5008598;28;20128;-74
2021/10/28 19:03:45;;;;;;;23.08;11.93;;;9.10;99.70;;;;;;5010908;28;20444;-74
2021/10/28 19:06:12;;;;;;;21.02;11.40;;;9.00;99.70;;;;;;5024490;28;20375;-74
2021/10/28 19:08:39;;;;;;;23.60;11.68;;;8.90;99.80;;;;;;5009234;28;20026;-73
2021/10/28 19:11:06;;;;;;;21.77;12.27;;;8.90;99.90;;;;;;4996241;28;20152;-73
2021/10/28 19:13:36;;;;;;;21.38;11.45;;;8.90;99.90;;;;;;5008035;28;20025;-73
2021/10/28 19:16:01;;;;;;;19.95;11.20;;;8.90;99.90;;;;;;5026214;28;20026;-74
2021/10/28 19:18:27;;;;;;;22.90;11.35;;;8.80;99.90;;;;;;5009778;28;20411;-75
2021/10/28 19:20:53;;;;;;;22.30;11.38;;;8.80;99.90;;;;;;5009139;28;20068;-82
2021/10/28 19:23:19;;;;;;;25.83;12.70;;;8.80;99.90;;;;;;5025374;28;20083;-74
2021/10/28 19:25:45;;;;;;;24.05;11.40;;;8.70;99.90;;;;;;5011155;28;20107;-75
2021/10/28 19:28:11;;;;;;;30.13;14.25;;;8.70;99.90;;;;;;5022217;28;20069;-78
2021/10/28 19:33:21;;;;;;;31.20;15.13;;;8.80;99.90;;;;;;5007271;28;20510;-76
2021/10/28 19:35:59;;;;;;;31.73;15.57;;;8.80;99.90;;;;;;5009402;28;20141;-76
2021/10/28 19:46:19;;;;;;;35.05;17.05;;;8.90;99.90;;;;;;5007207;28;20049;-79
2021/10/28 19:48:46;;;;;;;32.40;16.33;;;8.90;99.90;;;;;;5010873;28;20033;-74
2021/10/28 19:51:12;;;;;;;34.65;17.95;;;8.90;99.90;;;;;;4996627;28;20041;-81
2021/10/28 19:53:40;;;;;;;33.38;16.88;;;8.90;99.90;;;;;;5014626;28;20084;-78
2021/10/28 19:56:16;;;;;;;36.58;18.08;;;8.90;99.90;;;;;;5007031;28;20036;-80
2021/10/28 19:58:48;;;;;;;35.38;17.92;;;8.90;99.90;;;;;;5011645;28;20049;-77
2021/10/28 20:04:25;;;;;;;34.88;17.83;;;9.00;99.90;;;;;;5000904;28;20040;-77
2021/10/28 20:07:15;;;;;;;34.30;17.15;;;9.00;99.90;;;;;;5026066;28;20414;-77
2021/10/28 20:20:45;;;;;;;36.17;17.13;;;8.90;99.90;;;;;;5010736;28;20036;-77
2021/10/28 20:23:11;;;;;;;35.13;17.60;;;8.90;99.90;;;;;;5007874;28;20034;-77
2021/10/28 20:25:37;;;;;;;34.88;17.85;;;8.90;99.90;;;;;;5008367;28;20076;-76
2021/10/28 20:28:05;;;;;;;34.80;17.55;;;8.90;99.90;;;;;;5006653;28;20370;-77
2021/10/28 20:30:55;;;;;;;34.75;17.20;;;8.90;99.90;;;;;;5008852;28;20430;-79
2021/10/28 20:33:25;;;;;;;33.08;17.35;;;8.80;99.90;;;;;;5009307;28;20437;-76
2021/10/28 20:38:17;;;;;;;35.67;17.33;;;8.80;99.90;;;;;;5008814;28;20116;-77
2021/10/28 20:40:42;;;;;;;35.25;17.92;;;8.80;99.90;;;;;;5009904;28;20021;-77
2021/10/28 20:43:09;;;;;;;37.47;18.17;;;8.80;99.90;;;;;;5008202;28;20474;-77
2021/10/28 20:45:34;;;;;;;39.42;18.42;;;8.80;99.90;;;;;;5007589;28;20033;-77
2021/10/28 20:48:00;;;;;;;42.45;19.08;;;8.80;99.90;;;;;;5007515;28;20374;-76
2021/10/28 20:50:27;;;;;;;43.10;19.45;;;8.80;99.90;;;;;;5007670;28;20034;-77
2021/10/28 20:52:54;;;;;;;44.17;19.58;;;8.80;99.90;;;;;;5008299;28;20021;-78
2021/10/28 20:55:19;;;;;;;52.92;20.20;;;8.70;99.90;;;;;;5008453;28;20037;-77
2021/10/28 20:57:48;;;;;;;42.42;20.38;;;8.70;99.90;;;;;;5006727;28;20049;-78
2021/10/28 21:00:17;;;;;;;48.40;19.20;;;8.80;99.90;;;;;;5009067;28;20022;-77
2021/10/28 21:02:44;;;;;;;46.35;19.67;;;8.80;99.90;;;;;;5008514;28;20076;-77
2021/10/28 21:05:13;;;;;;;43.00;18.08;;;8.80;99.90;;;;;;5008029;28;20406;-77
2021/10/28 21:07:42;;;;;;;39.83;18.05;;;8.80;99.90;;;;;;5008431;28;20470;-78
2021/10/28 21:10:10;;;;;;;39.85;17.58;;;8.80;99.90;;;;;;5009719;28;20018;-77
2021/10/28 21:12:36;;;;;;;37.75;17.80;;;8.80;99.90;;;;;;5007245;28;20026;-76
2021/10/28 21:15:02;;;;;;;40.88;17.98;;;8.80;99.90;;;;;;5008263;28;20084;-77
2021/10/28 21:17:28;;;;;;;41.75;17.77;;;8.80;99.90;;;;;;5009121;28;20084;-76
2021/10/28 21:19:53;;;;;;;38.25;17.98;;;8.80;99.90;;;;;;5008116;28;20022;-77
2021/10/28 21:22:20;;;;;;;39.22;17.55;;;8.80;99.90;;;;;;5023729;28;20037;-74
2021/10/28 21:24:48;;;;;;;39.28;17.70;;;8.80;99.90;;;;;;5023319;28;20080;-77
2021/10/28 21:27:14;;;;;;;46.28;16.95;;;8.80;99.90;;;;;;4998772;28;20406;-77
2021/10/28 21:29:40;;;;;;;36.08;17.25;;;8.80;99.90;;;;;;5005409;28;20109;-76
2021/10/28 21:32:09;;;;;;;49.40;16.98;;;8.80;99.90;;;;;;5013366;28;20034;-76
2021/10/28 21:34:40;;;;;;;42.80;17.10;;;8.70;99.90;;;;;;5029424;28;20049;-75
2021/10/28 21:37:07;;;;;;;42.30;17.08;;;8.70;99.90;;;;;;5014413;28;20033;-74
2021/10/28 21:39:33;;;;;;;40.42;18.40;;;8.60;99.90;;;;;;5013834;28;20025;-74
2021/10/28 21:41:59;;;;;;;42.33;17.92;;;8.60;99.90;;;;;;5013367;28;20116;-76
2021/10/28 21:44:25;;;;;;;37.65;16.90;;;8.60;99.90;;;;;;5007446;28;20522;-77